createdAt,value
2022-12-12T00:00:08.761Z,2.04
2022-12-12T00:01:08.770Z,2.02
2022-12-12T00:02:08.809Z,2.04
2022-12-12T00:03:08.921Z,2.04
2022-12-12T00:04:08.739Z,2.07
2022-12-12T00:05:08.849Z,2.07
2022-12-12T00:06:08.689Z,2.07
2022-12-12T00:07:08.679Z,2.10
2022-12-12T00:08:08.803Z,2.14
2022-12-12T00:09:08.657Z,2.17
2022-12-12T00:10:08.680Z,2.17
2022-12-12T00:11:08.628Z,2.17
2022-12-12T00:12:08.628Z,2.17
2022-12-12T00:13:08.609Z,2.14
2022-12-12T00:14:08.607Z,2.11
2022-12-12T00:15:08.600Z,2.11
2022-12-12T00:16:08.648Z,2.08
2022-12-12T00:17:08.576Z,2.10
2022-12-12T00:18:08.559Z,2.10
2022-12-12T00:19:08.551Z,2.10
2022-12-12T00:20:08.537Z,2.11
2022-12-12T00:21:08.557Z,2.13
2022-12-12T00:22:08.528Z,2.07
2022-12-12T00:23:08.498Z,2.11
2022-12-12T00:24:08.500Z,1.99
2022-12-12T00:25:08.527Z,2.04
2022-12-12T00:26:08.574Z,2.10
2022-12-12T00:27:08.485Z,2.10
2022-12-12T00:28:08.452Z,2.10
2022-12-12T00:29:08.437Z,2.11
2022-12-12T00:30:08.426Z,2.10
2022-12-12T00:31:08.454Z,2.13
2022-12-12T00:32:08.412Z,2.14
2022-12-12T00:33:08.467Z,2.13
2022-12-12T00:34:08.376Z,2.10
2022-12-12T00:35:08.366Z,2.10
2022-12-12T00:36:08.357Z,2.10
2022-12-12T00:37:08.344Z,2.13
2022-12-12T00:38:08.359Z,2.08
2022-12-12T00:39:09.772Z,2.10
2022-12-12T00:40:08.313Z,2.14
2022-12-12T00:41:08.295Z,2.15
2022-12-12T00:42:08.295Z,2.15
2022-12-12T00:43:08.275Z,2.15
2022-12-12T00:44:08.335Z,2.18
2022-12-12T00:45:08.355Z,2.15
2022-12-12T00:46:08.618Z,2.11
2022-12-12T00:47:08.256Z,2.11
2022-12-12T00:48:08.233Z,2.10
2022-12-12T00:49:08.205Z,2.11
2022-12-12T00:50:08.235Z,2.07
2022-12-12T00:51:08.184Z,2.08
2022-12-12T00:52:08.177Z,2.10
2022-12-12T00:53:08.174Z,2.13
2022-12-12T00:54:08.156Z,2.17
2022-12-12T00:55:08.135Z,2.20
2022-12-12T00:56:08.153Z,2.24
2022-12-12T00:57:08.116Z,2.25
2022-12-12T00:58:08.104Z,2.25
2022-12-12T00:59:08.093Z,2.26
2022-12-12T01:00:08.103Z,2.31
2022-12-12T01:01:08.163Z,2.29
2022-12-12T01:02:08.150Z,2.28
2022-12-12T01:03:08.123Z,2.26
2022-12-12T01:04:08.036Z,2.25
2022-12-12T01:05:08.034Z,2.29
2022-12-12T01:06:08.020Z,2.33
2022-12-12T01:07:08.146Z,2.29
2022-12-12T01:08:08.046Z,2.28
2022-12-12T01:09:07.982Z,2.26
2022-12-12T01:10:07.973Z,2.20
2022-12-12T01:11:07.959Z,2.14
2022-12-12T01:12:07.952Z,2.10
2022-12-12T01:13:07.964Z,2.11
2022-12-12T01:14:07.933Z,2.15
2022-12-12T01:15:07.961Z,2.22
2022-12-12T01:16:07.917Z,2.26
2022-12-12T01:17:07.891Z,2.25
2022-12-12T01:18:07.886Z,2.22
2022-12-12T01:19:07.971Z,2.28
2022-12-12T01:20:07.861Z,2.26
2022-12-12T01:21:08.034Z,2.29
2022-12-12T01:22:07.845Z,2.26
2022-12-12T01:23:07.822Z,2.24
2022-12-12T01:24:07.906Z,2.22
2022-12-12T01:25:07.800Z,2.25
2022-12-12T01:26:07.789Z,2.20
2022-12-12T01:27:07.780Z,2.14
2022-12-12T01:28:07.767Z,2.17
2022-12-12T01:29:07.749Z,2.25
2022-12-12T01:30:07.771Z,2.26
2022-12-12T01:31:07.824Z,2.28
2022-12-12T01:32:07.722Z,2.28
2022-12-12T01:33:07.710Z,2.29
2022-12-12T01:34:08.032Z,2.29
2022-12-12T01:35:07.733Z,2.26
2022-12-12T01:36:07.746Z,2.24
2022-12-12T01:37:07.714Z,2.25
2022-12-12T01:38:07.758Z,2.24
2022-12-12T01:39:07.649Z,2.25
2022-12-12T01:40:07.697Z,2.26
2022-12-12T01:41:07.729Z,2.22
2022-12-12T01:42:07.628Z,2.13
2022-12-12T01:43:07.599Z,2.17
2022-12-12T01:44:07.670Z,2.18
2022-12-12T01:45:07.660Z,2.14
2022-12-12T01:46:07.642Z,2.11
2022-12-12T01:47:07.555Z,2.13
2022-12-12T01:48:07.559Z,2.13
2022-12-12T01:49:07.776Z,2.14
2022-12-12T01:50:07.521Z,2.18
2022-12-12T01:51:07.608Z,2.18
2022-12-12T01:52:07.497Z,2.13
2022-12-12T01:53:07.535Z,2.17
2022-12-12T01:54:07.526Z,2.22
2022-12-12T01:55:07.470Z,2.25
2022-12-12T01:56:07.447Z,2.26
2022-12-12T01:57:07.515Z,2.25
2022-12-12T01:58:07.445Z,2.24
2022-12-12T01:59:07.417Z,2.24
2022-12-12T02:00:07.503Z,2.22
2022-12-12T02:01:07.432Z,2.18
2022-12-12T02:02:07.504Z,2.20
2022-12-12T02:03:07.395Z,2.22
2022-12-12T02:04:07.423Z,2.22
2022-12-12T02:05:07.392Z,2.20
2022-12-12T02:06:07.335Z,2.22
2022-12-12T02:07:07.365Z,2.24
2022-12-12T02:08:07.372Z,2.24
2022-12-12T02:09:07.339Z,2.25
2022-12-12T02:10:07.285Z,2.29
2022-12-12T02:11:07.325Z,2.28
2022-12-12T02:12:07.277Z,2.26
2022-12-12T02:13:07.268Z,2.26
2022-12-12T02:14:07.429Z,2.29
2022-12-12T02:15:07.253Z,2.29
2022-12-12T02:16:07.244Z,2.29
2022-12-12T02:17:07.253Z,2.28
2022-12-12T02:18:12.394Z,2.28
2022-12-12T02:19:08.245Z,2.28
2022-12-12T02:20:07.211Z,2.26
2022-12-12T02:21:07.205Z,2.28
2022-12-12T02:22:07.166Z,2.28
2022-12-12T02:23:07.231Z,2.29
2022-12-12T02:24:07.137Z,2.31
2022-12-12T02:25:07.154Z,2.32
2022-12-12T02:26:07.142Z,2.32
2022-12-12T02:27:07.114Z,2.29
2022-12-12T02:28:07.120Z,2.29
2022-12-12T02:29:07.117Z,2.28
2022-12-12T02:30:07.134Z,2.29
2022-12-12T02:31:07.132Z,2.32
2022-12-12T02:32:07.071Z,2.32
2022-12-12T02:33:07.086Z,2.33
2022-12-12T02:34:07.081Z,2.33
2022-12-12T02:35:07.036Z,2.35
2022-12-12T02:36:07.061Z,2.38
2022-12-12T02:37:06.992Z,2.38
2022-12-12T02:38:06.973Z,2.42
2022-12-12T02:39:07.093Z,2.42
2022-12-12T02:40:06.952Z,2.32
2022-12-12T02:41:06.943Z,2.35
2022-12-12T02:42:06.929Z,2.35
2022-12-12T02:43:06.931Z,2.36
2022-12-12T02:44:06.912Z,2.42
2022-12-12T02:45:06.992Z,2.39
2022-12-12T02:46:06.889Z,2.43
2022-12-12T02:47:06.882Z,2.39
2022-12-12T02:48:06.869Z,2.43
2022-12-12T02:49:06.860Z,2.43
2022-12-12T02:50:06.842Z,2.42
2022-12-12T02:51:06.878Z,2.43
2022-12-12T02:52:06.820Z,2.46
2022-12-12T02:53:06.810Z,2.46
2022-12-12T02:54:06.800Z,2.43
2022-12-12T02:55:06.796Z,2.43
2022-12-12T02:56:06.859Z,2.46
2022-12-12T02:57:06.831Z,2.44
2022-12-12T02:58:06.747Z,2.46
2022-12-12T02:59:06.750Z,2.44
2022-12-12T03:00:06.793Z,2.46
2022-12-12T03:01:06.765Z,2.46
2022-12-12T03:02:06.798Z,2.47
2022-12-12T03:03:06.749Z,2.47
2022-12-12T03:04:06.688Z,2.46
2022-12-12T03:05:06.677Z,2.46
2022-12-12T03:06:06.658Z,2.46
2022-12-12T03:07:06.679Z,2.43
2022-12-12T03:08:06.743Z,2.44
2022-12-12T03:09:06.627Z,2.44
2022-12-12T03:10:06.618Z,2.42
2022-12-12T03:11:06.622Z,2.42
2022-12-12T03:12:06.589Z,2.42
2022-12-12T03:13:06.731Z,2.38
2022-12-12T03:14:06.779Z,2.43
2022-12-12T03:15:06.611Z,2.42
2022-12-12T03:16:06.642Z,2.42
2022-12-12T03:17:06.544Z,2.44
2022-12-12T03:18:06.529Z,2.44
2022-12-12T03:19:06.516Z,2.47
2022-12-12T03:20:06.518Z,2.50
2022-12-12T03:21:06.508Z,2.50
2022-12-12T03:22:06.486Z,2.49
2022-12-12T03:23:06.476Z,2.49
2022-12-12T03:24:06.458Z,2.49
2022-12-12T03:25:06.476Z,2.47
2022-12-12T03:26:06.436Z,2.49
2022-12-12T03:27:06.427Z,2.49
2022-12-12T03:28:06.416Z,2.44
2022-12-12T03:29:06.410Z,2.46
2022-12-12T03:30:06.385Z,2.49
2022-12-12T03:31:06.395Z,2.47
2022-12-12T03:32:06.366Z,2.49
2022-12-12T03:33:06.355Z,2.47
2022-12-12T03:34:06.349Z,2.29
2022-12-12T03:35:06.336Z,2.35
2022-12-12T03:36:06.345Z,2.35
2022-12-12T03:37:06.314Z,2.42
2022-12-12T03:38:06.304Z,2.43
2022-12-12T03:39:06.296Z,2.46
2022-12-12T03:40:06.297Z,2.44
2022-12-12T03:41:06.264Z,2.51
2022-12-12T03:42:06.275Z,2.53
2022-12-12T03:43:06.254Z,2.51
2022-12-12T03:44:06.234Z,2.53
2022-12-12T03:45:06.224Z,2.51
2022-12-12T03:46:06.262Z,2.47
2022-12-12T03:47:06.206Z,2.46
2022-12-12T03:48:06.203Z,2.44
2022-12-12T03:49:06.182Z,2.42
2022-12-12T03:50:06.169Z,2.44
2022-12-12T03:51:06.155Z,2.44
2022-12-12T03:52:06.142Z,2.43
2022-12-12T03:53:06.155Z,2.46
2022-12-12T03:54:06.124Z,2.50
2022-12-12T03:55:06.113Z,2.51
2022-12-12T03:56:06.092Z,2.49
2022-12-12T03:57:06.102Z,2.47
2022-12-12T03:58:06.072Z,2.44
2022-12-12T03:59:06.083Z,2.47
2022-12-12T04:00:06.052Z,2.49
2022-12-12T04:01:06.067Z,2.46
2022-12-12T04:02:06.076Z,2.47
2022-12-12T04:03:06.025Z,2.47
2022-12-12T04:04:06.011Z,2.46
2022-12-12T04:05:06.011Z,2.47
2022-12-12T04:06:05.981Z,2.44
2022-12-12T04:07:05.974Z,2.46
2022-12-12T04:08:06.014Z,2.43
2022-12-12T04:09:05.952Z,2.44
2022-12-12T04:10:05.938Z,2.44
2022-12-12T04:11:05.972Z,2.44
2022-12-12T04:12:05.915Z,2.44
2022-12-12T04:13:05.910Z,2.42
2022-12-12T04:14:05.891Z,2.43
2022-12-12T04:15:05.881Z,2.46
2022-12-12T04:16:05.872Z,2.51
2022-12-12T04:17:05.910Z,2.49
2022-12-12T04:18:05.841Z,2.50
2022-12-12T04:19:05.840Z,2.50
2022-12-12T04:20:05.840Z,2.47
2022-12-12T04:21:05.819Z,2.47
2022-12-12T04:22:05.800Z,2.44
2022-12-12T04:23:05.810Z,2.36
2022-12-12T04:24:05.809Z,2.38
2022-12-12T04:25:05.785Z,2.38
2022-12-12T04:26:05.758Z,2.39
2022-12-12T04:27:05.749Z,2.44
2022-12-12T04:28:05.756Z,2.46
2022-12-12T04:29:05.728Z,2.38
2022-12-12T04:30:05.709Z,2.35
2022-12-12T04:31:05.699Z,2.33
2022-12-12T04:32:05.755Z,2.33
2022-12-12T04:33:05.679Z,2.36
2022-12-12T04:34:05.705Z,2.32
2022-12-12T04:35:05.663Z,2.35
2022-12-12T04:36:05.647Z,2.35
2022-12-12T04:37:05.638Z,2.36
2022-12-12T04:38:05.626Z,2.44
2022-12-12T04:39:05.616Z,2.46
2022-12-12T04:40:05.617Z,2.46
2022-12-12T04:41:05.587Z,2.46
2022-12-12T04:42:05.575Z,2.44
2022-12-12T04:43:05.566Z,2.44
2022-12-12T04:44:05.557Z,2.42
2022-12-12T04:45:05.566Z,2.35
2022-12-12T04:46:05.580Z,2.35
2022-12-12T04:47:05.516Z,2.42
2022-12-12T04:48:05.506Z,2.43
2022-12-12T04:49:05.508Z,2.42
2022-12-12T04:50:05.485Z,2.39
2022-12-12T04:51:05.486Z,2.42
2022-12-12T04:52:05.463Z,2.39
2022-12-12T04:53:05.455Z,2.38
2022-12-12T04:54:05.438Z,2.43
2022-12-12T04:55:05.435Z,2.35
2022-12-12T04:56:05.445Z,2.35
2022-12-12T04:57:05.405Z,2.33
2022-12-12T04:58:05.398Z,2.33
2022-12-12T04:59:05.386Z,2.29
2022-12-12T05:00:05.366Z,2.29
2022-12-12T05:01:05.396Z,2.26
2022-12-12T05:02:05.444Z,2.26
2022-12-12T05:03:05.345Z,2.25
2022-12-12T05:04:05.324Z,2.24
2022-12-12T05:05:05.316Z,2.22
2022-12-12T05:06:05.304Z,2.29
2022-12-12T05:07:05.303Z,2.33
2022-12-12T05:08:05.375Z,2.32
2022-12-12T05:09:05.273Z,2.31
2022-12-12T05:10:05.254Z,2.32
2022-12-12T05:11:05.254Z,2.32
2022-12-12T05:12:05.239Z,2.32
2022-12-12T05:13:05.223Z,2.35
2022-12-12T05:14:05.234Z,2.42
2022-12-12T05:15:05.203Z,2.42
2022-12-12T05:16:05.204Z,2.42
2022-12-12T05:17:05.236Z,2.44
2022-12-12T05:18:05.169Z,2.39
2022-12-12T05:19:05.181Z,2.44
2022-12-12T05:20:05.194Z,2.46
2022-12-12T05:21:05.132Z,2.44
2022-12-12T05:22:05.122Z,2.44
2022-12-12T05:23:05.112Z,2.46
2022-12-12T05:24:05.105Z,2.47
2022-12-12T05:25:05.093Z,2.47
2022-12-12T05:26:05.105Z,2.47
2022-12-12T05:27:05.080Z,2.46
2022-12-12T05:28:05.062Z,2.46
2022-12-12T05:29:07.545Z,2.44
2022-12-12T05:30:05.031Z,2.44
2022-12-12T05:31:05.088Z,2.44
2022-12-12T05:32:05.022Z,2.39
2022-12-12T05:33:05.000Z,2.38
2022-12-12T05:34:04.993Z,2.38
2022-12-12T05:35:04.979Z,2.36
2022-12-12T05:36:04.972Z,2.36
2022-12-12T05:37:04.980Z,2.35
2022-12-12T05:38:04.941Z,2.32
2022-12-12T05:39:04.942Z,2.33
2022-12-12T05:40:11.977Z,2.36
2022-12-12T05:41:04.910Z,2.38
2022-12-12T05:42:04.899Z,2.33
2022-12-12T05:43:04.918Z,2.28
2022-12-12T05:44:04.889Z,2.24
2022-12-12T05:45:04.874Z,2.18
2022-12-12T05:46:04.923Z,2.11
2022-12-12T05:47:04.866Z,2.04
2022-12-12T05:48:04.885Z,2.04
2022-12-12T05:49:04.852Z,2.06
2022-12-12T05:50:04.809Z,2.11
2022-12-12T05:51:04.799Z,2.06
2022-12-12T05:52:04.789Z,2.00
2022-12-12T05:53:04.778Z,1.99
2022-12-12T05:54:04.918Z,2.04
2022-12-12T05:55:04.780Z,2.04
2022-12-12T05:56:04.787Z,2.00
2022-12-12T05:57:04.727Z,2.02
2022-12-12T05:58:04.727Z,1.99
2022-12-12T05:59:04.707Z,2.08
2022-12-12T06:00:04.740Z,2.04
2022-12-12T06:01:04.717Z,2.08
2022-12-12T06:02:04.711Z,2.10
2022-12-12T06:03:04.671Z,2.13
2022-12-12T06:04:04.716Z,2.18
2022-12-12T06:05:04.656Z,2.24
2022-12-12T06:06:04.634Z,2.20
2022-12-12T06:07:04.615Z,2.18
2022-12-12T06:08:04.657Z,2.22
2022-12-12T06:09:04.596Z,2.22
2022-12-12T06:10:04.586Z,2.20
2022-12-12T06:11:04.598Z,2.13
2022-12-12T06:12:04.566Z,2.15
2022-12-12T06:13:04.558Z,2.15
2022-12-12T06:14:04.573Z,2.15
2022-12-12T06:15:04.538Z,2.10
2022-12-12T06:16:04.590Z,2.08
2022-12-12T06:17:04.516Z,2.08
2022-12-12T06:18:04.498Z,2.06
2022-12-12T06:19:04.476Z,2.07
2022-12-12T06:20:04.474Z,2.11
2022-12-12T06:21:04.457Z,2.13
2022-12-12T06:22:04.473Z,2.15
2022-12-12T06:23:04.454Z,2.14
2022-12-12T06:24:04.445Z,2.17
2022-12-12T06:25:04.420Z,2.15
2022-12-12T06:26:04.404Z,2.18
2022-12-12T06:27:04.395Z,2.14
2022-12-12T06:28:04.411Z,2.08
2022-12-12T06:29:04.377Z,2.10
2022-12-12T06:30:04.356Z,2.10
2022-12-12T06:31:09.708Z,2.11
2022-12-12T06:32:05.345Z,2.15
2022-12-12T06:33:04.324Z,2.15
2022-12-12T06:34:04.345Z,2.10
2022-12-12T06:35:04.342Z,2.08
2022-12-12T06:36:04.304Z,2.11
2022-12-12T06:37:04.275Z,2.15
2022-12-12T06:38:04.274Z,2.14
2022-12-12T06:39:04.273Z,2.11
2022-12-12T06:40:04.254Z,2.14
2022-12-12T06:41:04.233Z,2.11
2022-12-12T06:42:04.226Z,2.15
2022-12-12T06:43:04.275Z,2.20
2022-12-12T06:44:04.241Z,2.24
2022-12-12T06:45:04.194Z,2.28
2022-12-12T06:46:04.241Z,2.28
2022-12-12T06:47:04.197Z,2.28
2022-12-12T06:48:04.162Z,2.29
2022-12-12T06:49:04.213Z,2.32
2022-12-12T06:50:04.164Z,2.29
2022-12-12T06:51:04.123Z,2.29
2022-12-12T06:52:04.110Z,2.26
2022-12-12T06:53:04.091Z,2.28
2022-12-12T06:54:04.091Z,2.31
2022-12-12T06:55:04.101Z,2.33
2022-12-12T06:56:04.070Z,2.32
2022-12-12T06:57:04.067Z,2.32
2022-12-12T06:58:04.081Z,2.33
2022-12-12T06:59:04.040Z,2.39
2022-12-12T07:00:04.025Z,2.43
2022-12-12T07:01:04.061Z,2.44
2022-12-12T07:02:04.066Z,2.47
2022-12-12T07:03:04.044Z,2.46
2022-12-12T07:04:03.980Z,2.44
2022-12-12T07:05:03.972Z,2.39
2022-12-12T07:06:03.959Z,2.44
2022-12-12T07:07:03.959Z,2.39
2022-12-12T07:08:03.998Z,2.43
2022-12-12T07:09:03.919Z,2.36
2022-12-12T07:10:03.928Z,2.38
2022-12-12T07:11:03.900Z,2.31
2022-12-12T07:12:03.908Z,2.31
2022-12-12T07:13:03.869Z,2.25
2022-12-12T07:14:03.920Z,2.20
2022-12-12T07:15:03.849Z,2.10
2022-12-12T07:16:03.922Z,2.08
2022-12-12T07:17:03.831Z,2.15
2022-12-12T07:18:03.851Z,2.13
2022-12-12T07:19:03.820Z,2.14
2022-12-12T07:20:03.805Z,2.18
2022-12-12T07:21:03.815Z,2.15
2022-12-12T07:22:09.313Z,2.17
2022-12-12T07:23:04.783Z,2.22
2022-12-12T07:24:03.768Z,2.25
2022-12-12T07:25:03.738Z,2.29
2022-12-12T07:26:03.728Z,2.31
2022-12-12T07:27:03.720Z,2.32
2022-12-12T07:28:03.726Z,2.35
2022-12-12T07:29:03.763Z,2.29
2022-12-12T07:30:03.698Z,2.24
2022-12-12T07:31:03.755Z,2.31
2022-12-12T07:32:03.700Z,2.33
2022-12-12T07:33:03.650Z,2.42
2022-12-12T07:34:03.663Z,2.39
2022-12-12T07:35:03.716Z,2.39
2022-12-12T07:36:03.623Z,2.39
2022-12-12T07:37:03.616Z,2.42
2022-12-12T07:38:03.632Z,2.39
2022-12-12T07:39:03.768Z,2.38
2022-12-12T07:40:03.565Z,2.38
2022-12-12T07:41:03.585Z,2.49
2022-12-12T07:42:03.576Z,2.53
2022-12-12T07:43:03.736Z,2.56
2022-12-12T07:44:03.587Z,2.60
2022-12-12T07:45:03.518Z,2.64
2022-12-12T07:46:03.604Z,2.71
2022-12-12T07:47:03.529Z,2.72
2022-12-12T07:48:03.493Z,2.77
2022-12-12T07:49:03.464Z,2.77
2022-12-12T07:50:03.470Z,2.75
2022-12-12T07:51:03.470Z,2.77
2022-12-12T07:52:03.474Z,2.77
2022-12-12T07:53:03.468Z,2.75
2022-12-12T07:54:03.503Z,2.79
2022-12-12T07:55:03.433Z,2.75
2022-12-12T07:56:03.384Z,2.74
2022-12-12T07:57:03.396Z,2.67
2022-12-12T07:58:03.423Z,2.64
2022-12-12T07:59:03.370Z,2.68
2022-12-12T08:00:03.373Z,2.68
2022-12-12T08:01:03.365Z,2.74
2022-12-12T08:02:03.386Z,2.77
2022-12-12T08:03:03.313Z,2.80
2022-12-12T08:04:04.303Z,2.83
2022-12-12T08:05:03.357Z,2.82
2022-12-12T08:06:03.282Z,2.82
2022-12-12T08:07:08.297Z,2.79
2022-12-12T08:08:04.274Z,2.80
2022-12-12T08:09:03.337Z,2.75
2022-12-12T08:10:03.251Z,2.72
2022-12-12T08:11:03.215Z,2.71
2022-12-12T08:12:03.222Z,2.72
2022-12-12T08:13:03.239Z,2.79
2022-12-12T08:14:05.034Z,2.82
2022-12-12T08:15:03.229Z,2.87
2022-12-12T08:16:03.231Z,2.90
2022-12-12T08:17:03.152Z,2.89
2022-12-12T08:18:03.159Z,2.97
2022-12-12T08:19:03.131Z,2.98
2022-12-12T08:20:03.130Z,2.93
2022-12-12T08:21:03.157Z,2.87
2022-12-12T08:22:03.136Z,2.95
2022-12-12T08:23:03.093Z,2.97
2022-12-12T08:24:03.102Z,3.00
2022-12-12T08:25:03.178Z,3.08
2022-12-12T08:26:03.057Z,3.21
2022-12-12T08:27:03.104Z,3.23
2022-12-12T08:28:03.028Z,3.21
2022-12-12T08:29:03.012Z,3.14
2022-12-12T08:30:03.011Z,3.16
2022-12-12T08:31:03.026Z,3.16
2022-12-12T08:32:03.929Z,3.18
2022-12-12T08:33:07.898Z,3.21
2022-12-12T08:34:03.960Z,3.23
2022-12-12T08:35:02.962Z,3.25
2022-12-12T08:36:02.944Z,3.22
2022-12-12T08:37:02.953Z,3.29
2022-12-12T08:38:02.918Z,3.26
2022-12-12T08:39:02.931Z,3.22
2022-12-12T08:40:02.891Z,3.19
2022-12-12T08:41:02.906Z,3.18
2022-12-12T08:42:02.871Z,3.16
2022-12-12T08:43:02.859Z,3.19
2022-12-12T08:44:02.850Z,3.11
2022-12-12T08:45:02.849Z,2.95
2022-12-12T08:46:02.827Z,2.80
2022-12-12T08:47:02.858Z,2.80
2022-12-12T08:48:02.825Z,2.85
2022-12-12T08:49:02.788Z,2.95
2022-12-12T08:50:02.823Z,3.03
2022-12-12T08:51:02.769Z,3.03
2022-12-12T08:52:02.782Z,3.05
2022-12-12T08:53:02.766Z,3.08
2022-12-12T08:54:02.761Z,3.13
2022-12-12T08:55:02.757Z,3.19
2022-12-12T08:56:02.744Z,3.14
2022-12-12T08:57:02.707Z,3.21
2022-12-12T08:58:02.700Z,3.23
2022-12-12T08:59:02.677Z,3.23
2022-12-12T09:00:02.669Z,3.22
2022-12-12T09:01:02.655Z,3.29
2022-12-12T09:02:02.820Z,3.25
2022-12-12T09:03:02.673Z,3.22
2022-12-12T09:04:02.637Z,3.32
2022-12-12T09:05:02.618Z,3.48
2022-12-12T09:06:02.609Z,3.48
2022-12-12T09:07:08.283Z,3.47
2022-12-12T09:08:03.656Z,3.48
2022-12-12T09:09:02.575Z,3.56
2022-12-12T09:10:02.634Z,3.55
2022-12-12T09:11:02.641Z,3.65
2022-12-12T09:12:02.557Z,3.59
2022-12-12T09:13:02.535Z,3.62
2022-12-12T09:14:02.557Z,3.66
2022-12-12T09:15:02.507Z,3.68
2022-12-12T09:16:02.591Z,3.74
2022-12-12T09:17:02.496Z,3.80
2022-12-12T09:18:02.464Z,3.73
2022-12-12T09:19:02.487Z,3.77
2022-12-12T09:20:02.446Z,3.83
2022-12-12T09:21:02.426Z,3.91
2022-12-12T09:22:02.444Z,3.98
2022-12-12T09:23:02.444Z,4.04
2022-12-12T09:24:02.433Z,4.04
2022-12-12T09:25:02.405Z,4.05
2022-12-12T09:26:02.375Z,4.08
2022-12-12T09:27:02.382Z,4.13
2022-12-12T09:28:02.355Z,4.16
2022-12-12T09:29:02.346Z,4.17
2022-12-12T09:30:02.331Z,4.19
2022-12-12T09:31:02.384Z,4.19
2022-12-12T09:32:02.304Z,4.22
2022-12-12T09:33:02.292Z,4.31
2022-12-12T09:34:02.288Z,4.40
2022-12-12T09:35:02.276Z,4.49
2022-12-12T09:36:02.340Z,4.55
2022-12-12T09:37:02.275Z,4.58
2022-12-12T09:38:02.273Z,4.59
2022-12-12T09:39:02.233Z,4.56
2022-12-12T09:40:02.236Z,4.59
2022-12-12T09:41:02.220Z,4.60
2022-12-12T09:42:02.232Z,4.60
2022-12-12T09:43:02.187Z,4.63
2022-12-12T09:44:02.182Z,4.67
2022-12-12T09:45:02.159Z,4.66
2022-12-12T09:46:02.229Z,4.58
2022-12-12T09:47:02.133Z,4.58
2022-12-12T09:48:02.152Z,4.56
2022-12-12T09:49:02.115Z,4.50
2022-12-12T09:50:02.102Z,4.49
2022-12-12T09:51:02.132Z,4.49
2022-12-12T09:52:02.081Z,4.42
2022-12-12T09:53:02.075Z,4.35
2022-12-12T09:54:02.124Z,4.41
2022-12-12T09:55:02.042Z,4.52
2022-12-12T09:56:02.038Z,4.59
2022-12-12T09:57:02.046Z,4.66
2022-12-12T09:58:02.031Z,4.67
2022-12-12T09:59:02.000Z,4.67
2022-12-12T10:00:02.025Z,4.58
2022-12-12T10:01:02.094Z,4.49
2022-12-12T10:02:02.007Z,4.42
2022-12-12T10:03:01.951Z,4.26
2022-12-12T10:04:01.951Z,4.20
2022-12-12T10:05:01.935Z,4.23
2022-12-12T10:06:28.659Z,4.22
2022-12-12T10:07:02.919Z,4.19
2022-12-12T10:08:01.947Z,4.19
2022-12-12T10:09:01.903Z,4.23
2022-12-12T10:10:01.922Z,4.20
2022-12-12T10:11:01.878Z,4.22
2022-12-12T10:12:05.057Z,4.22
2022-12-12T10:13:02.852Z,4.31
2022-12-12T10:14:01.859Z,4.31
2022-12-12T10:15:01.825Z,4.26
2022-12-12T10:16:01.880Z,4.16
2022-12-12T10:17:01.902Z,4.06
2022-12-12T10:18:01.829Z,4.02
2022-12-12T10:19:01.782Z,4.10
2022-12-12T10:20:01.760Z,4.10
2022-12-12T10:21:01.770Z,4.04
2022-12-12T10:22:01.748Z,4.05
2022-12-12T10:23:01.752Z,4.08
2022-12-12T10:24:01.831Z,4.01
2022-12-12T10:25:01.708Z,3.98
2022-12-12T10:26:01.703Z,3.88
2022-12-12T10:27:01.688Z,3.69
2022-12-12T10:28:01.715Z,3.66
2022-12-12T10:29:01.701Z,3.58
2022-12-12T10:30:01.647Z,3.56
2022-12-12T10:31:01.649Z,3.65
2022-12-12T10:32:01.678Z,3.65
2022-12-12T10:33:01.627Z,3.59
2022-12-12T10:34:01.910Z,3.58
2022-12-12T10:35:01.627Z,3.51
2022-12-12T10:36:01.597Z,3.53
2022-12-12T10:37:01.577Z,3.62
2022-12-12T10:38:01.557Z,3.65
2022-12-12T10:39:01.548Z,3.68
2022-12-12T10:40:01.536Z,3.69
2022-12-12T10:41:01.547Z,3.60
2022-12-12T10:42:01.518Z,3.51
2022-12-12T10:43:01.507Z,3.32
2022-12-12T10:44:01.515Z,3.32
2022-12-12T10:45:01.487Z,3.26
2022-12-12T10:46:01.732Z,3.31
2022-12-12T10:47:01.498Z,3.36
2022-12-12T10:48:01.456Z,3.37
2022-12-12T10:49:01.437Z,3.41
2022-12-12T10:50:01.438Z,3.36
2022-12-12T10:51:01.425Z,3.44
2022-12-12T10:52:01.428Z,3.47
2022-12-12T10:53:01.399Z,3.45
2022-12-12T10:54:01.394Z,3.41
2022-12-12T10:55:01.375Z,3.44
2022-12-12T10:56:01.383Z,3.44
2022-12-12T10:57:01.377Z,3.51
2022-12-12T10:58:01.357Z,3.45
2022-12-12T10:59:01.350Z,3.44
2022-12-12T11:00:01.319Z,3.40
2022-12-12T11:01:01.352Z,3.31
2022-12-12T11:02:10.212Z,3.32
2022-12-12T11:03:02.444Z,3.40
2022-12-12T11:04:01.283Z,3.42
2022-12-12T11:05:01.263Z,3.47
2022-12-12T11:06:01.249Z,3.53
2022-12-12T11:07:01.264Z,3.50
2022-12-12T11:08:01.316Z,3.48
2022-12-12T11:09:01.215Z,3.48
2022-12-12T11:10:02.409Z,3.56
2022-12-12T11:11:01.203Z,3.68
2022-12-12T11:12:01.189Z,3.81
2022-12-12T11:13:01.245Z,3.78
2022-12-12T11:14:01.184Z,3.76
2022-12-12T11:15:01.146Z,3.88
2022-12-12T11:16:01.200Z,3.86
2022-12-12T11:17:01.179Z,3.92
2022-12-12T11:18:05.910Z,3.88
2022-12-12T11:19:02.168Z,3.91
2022-12-12T11:20:01.091Z,3.87
2022-12-12T11:21:01.090Z,3.83
2022-12-12T11:22:01.064Z,3.84
2022-12-12T11:23:01.062Z,3.92
2022-12-12T11:24:01.055Z,3.99
2022-12-12T11:25:01.060Z,3.88
2022-12-12T11:26:01.032Z,3.92
2022-12-12T11:27:01.014Z,3.96
2022-12-12T11:28:06.164Z,3.84
2022-12-12T11:29:02.005Z,3.86
2022-12-12T11:30:00.986Z,3.83
2022-12-12T11:31:01.015Z,3.92
2022-12-12T11:32:01.003Z,4.02
2022-12-12T11:33:00.951Z,4.06
2022-12-12T11:34:00.941Z,4.14
2022-12-12T11:35:00.930Z,4.14
2022-12-12T11:36:00.911Z,4.19
2022-12-12T11:37:00.924Z,4.28
2022-12-12T11:38:00.889Z,4.34
2022-12-12T11:39:00.880Z,4.32
2022-12-12T11:40:00.900Z,4.35
2022-12-12T11:41:00.863Z,4.44
2022-12-12T11:42:00.860Z,4.55
2022-12-12T11:43:00.831Z,4.63
2022-12-12T11:44:00.830Z,4.73
2022-12-12T11:45:00.820Z,4.80
2022-12-12T11:46:00.843Z,4.90
2022-12-12T11:47:00.805Z,4.97
2022-12-12T11:48:00.812Z,5.02
2022-12-12T11:49:00.777Z,4.99
2022-12-12T11:50:02.845Z,4.96
2022-12-12T11:51:01.741Z,4.94
2022-12-12T11:52:00.741Z,4.92
2022-12-12T11:53:00.727Z,5.02
2022-12-12T11:54:00.737Z,5.00
2022-12-12T11:55:00.725Z,4.92
2022-12-12T11:56:00.680Z,4.90
2022-12-12T11:57:00.683Z,4.93
2022-12-12T11:58:03.829Z,4.80
2022-12-12T11:59:00.697Z,4.77
2022-12-12T12:00:00.659Z,4.84
2022-12-12T12:01:00.635Z,4.93
2022-12-12T12:02:00.638Z,4.99
2022-12-12T12:03:00.644Z,5.05
2022-12-12T12:04:56.014Z,4.97
2022-12-12T12:05:55.895Z,4.99
2022-12-12T12:06:55.889Z,5.08
2022-12-12T12:07:55.887Z,5.15
2022-12-12T12:08:55.875Z,4.97
2022-12-12T12:09:55.848Z,4.94
2022-12-12T12:10:55.865Z,4.87
2022-12-12T12:11:55.855Z,4.80
2022-12-12T12:12:55.817Z,4.73
2022-12-12T12:13:55.814Z,4.62
2022-12-12T12:14:55.786Z,4.62
2022-12-12T12:15:55.788Z,4.53
2022-12-12T12:16:55.826Z,4.62
2022-12-12T12:17:55.777Z,4.78
2022-12-12T12:18:55.764Z,4.93
2022-12-12T12:19:55.746Z,5.10
2022-12-12T12:20:55.734Z,5.14
2022-12-12T12:21:55.722Z,5.14
2022-12-12T12:22:55.753Z,5.20
2022-12-12T12:23:55.702Z,5.20
2022-12-12T12:24:55.687Z,5.12
2022-12-12T12:25:55.691Z,5.11
2022-12-12T12:26:55.675Z,5.14
2022-12-12T12:27:55.689Z,5.10
2022-12-12T12:28:55.655Z,5.00
2022-12-12T12:29:55.637Z,4.84
2022-12-12T12:30:55.659Z,4.92
2022-12-12T12:31:55.618Z,4.94
2022-12-12T12:32:55.597Z,4.96
2022-12-12T12:33:55.615Z,4.90
2022-12-12T12:34:55.592Z,4.93
2022-12-12T12:35:55.571Z,5.02
2022-12-12T12:36:55.552Z,5.10
2022-12-12T12:37:55.573Z,5.11
2022-12-12T12:38:55.528Z,5.00
2022-12-12T12:39:55.540Z,4.86
2022-12-12T12:40:55.553Z,4.89
2022-12-12T12:41:55.505Z,4.87
2022-12-12T12:42:55.492Z,4.84
2022-12-12T12:43:55.472Z,4.78
2022-12-12T12:44:55.512Z,4.53
2022-12-12T12:45:55.464Z,4.42
2022-12-12T12:46:55.445Z,4.26
2022-12-12T12:47:55.440Z,4.14
2022-12-12T12:48:55.437Z,4.19
2022-12-12T12:49:55.463Z,4.10
2022-12-12T12:50:55.421Z,4.08
2022-12-12T12:51:55.383Z,3.98
2022-12-12T12:52:55.375Z,3.95
2022-12-12T12:53:55.365Z,3.92
2022-12-12T12:54:55.353Z,3.92
2022-12-12T12:55:55.342Z,3.99
2022-12-12T12:56:55.350Z,4.12
2022-12-12T12:57:55.321Z,4.02
2022-12-12T12:58:55.309Z,4.02
2022-12-12T12:59:55.292Z,4.16
2022-12-12T13:00:55.280Z,4.12
2022-12-12T13:01:55.315Z,4.13
2022-12-12T13:02:55.344Z,4.14
2022-12-12T13:03:55.256Z,4.16
2022-12-12T13:04:55.240Z,4.26
2022-12-12T13:05:55.231Z,4.31
2022-12-12T13:06:55.251Z,4.17
2022-12-12T13:07:55.297Z,4.04
2022-12-12T13:08:55.238Z,3.96
2022-12-12T13:09:55.393Z,3.88
2022-12-12T13:10:55.172Z,4.06
2022-12-12T13:11:55.167Z,3.96
2022-12-12T13:12:55.153Z,3.87
2022-12-12T13:13:55.161Z,3.92
2022-12-12T13:14:55.140Z,3.76
2022-12-12T13:15:55.149Z,3.78
2022-12-12T13:16:55.099Z,3.73
2022-12-12T13:17:55.094Z,3.59
2022-12-12T13:18:55.090Z,3.44